Time;durP1;ratioP1;P1;durP2;ratioP2;P2;SDS_P1;SDS_P2;PMS_P1;PMS_P2;Temp;Humidity;BMP_temperature;BMP_pressure;BME280_temperature;BME280_humidity;BME280_pressure;Samples;Min_cycle;Max_cycle;Signal;HPM_P1;HPM_P2
2021/12/27 00:02:22;;;;;;;;;;;3.10;99.90;;;;;;5065638;28;19917;-73
2021/12/27 00:04:48;;;;;;;;;;;3.20;99.90;;;;;;5066147;28;20433;-69
2021/12/27 00:07:14;;;;;;;;;;;3.10;99.90;;;;;;5066593;28;20376;-71
2021/12/27 00:09:40;;;;;;;;;;;3.20;99.90;;;;;;5070480;28;19908;-70
2021/12/27 00:12:06;;;;;;;;;;;3.20;99.90;;;;;;5069843;28;19938;-71
2021/12/27 00:14:31;;;;;;;;;;;3.20;99.90;;;;;;5076603;28;19917;-70
2021/12/27 00:16:57;;;;;;;;;;;3.20;99.90;;;;;;5074965;28;20180;-70
2021/12/27 00:19:22;;;;;;;;;;;3.20;99.90;;;;;;5072929;28;19913;-69
2021/12/27 00:21:48;;;;;;;;;;;3.20;99.90;;;;;;5068944;28;19935;-71
2021/12/27 00:24:13;;;;;;;;;;;3.30;99.90;;;;;;5070709;28;19912;-69
2021/12/27 00:26:39;;;;;;;;;;;3.30;99.90;;;;;;5068760;28;19965;-70
2021/12/27 00:29:04;;;;;;;;;;;3.30;99.90;;;;;;5066519;28;20255;-70
2021/12/27 00:31:30;;;;;;;;;;;3.40;99.90;;;;;;5077072;28;19955;-70
2021/12/27 00:33:55;;;;;;;;;;;3.40;99.90;;;;;;5074100;28;20446;-70
2021/12/27 00:36:21;;;;;;;;;;;3.30;99.90;;;;;;5066602;28;19913;-69
2021/12/27 00:38:46;;;;;;;;;;;3.40;99.90;;;;;;5070886;28;19999;-73
2021/12/27 00:41:12;;;;;;;;;;;3.40;99.90;;;;;;5075147;28;19916;-70
2021/12/27 00:43:37;;;;;;;;;;;3.40;99.90;;;;;;5075617;28;19958;-70
2021/12/27 00:46:02;;;;;;;;;;;3.40;99.90;;;;;;5067421;28;19912;-70
2021/12/27 00:48:28;;;;;;;;;;;3.50;99.90;;;;;;5066049;28;19920;-72
2021/12/27 00:50:53;;;;;;;;;;;3.50;99.90;;;;;;5070797;28;20173;-68
2021/12/27 00:53:19;;;;;;;;;;;3.50;99.90;;;;;;5077842;28;19916;-69
2021/12/27 00:55:45;;;;;;;;;;;3.50;99.90;;;;;;5054100;28;19947;-73
2021/12/27 00:58:10;;;;;;;;;;;3.50;99.90;;;;;;5062874;28;20363;-71
2021/12/27 01:00:37;;;;;;;;;;;3.50;99.90;;;;;;5064236;28;19937;-70
2021/12/27 01:03:03;;;;;;;;;;;3.50;99.90;;;;;;5065461;28;20373;-71
2021/12/27 01:05:28;;;;;;;;;;;3.60;99.90;;;;;;5064402;28;19917;-70
2021/12/27 01:07:54;;;;;;;;;;;3.60;99.90;;;;;;5065005;28;19915;-73
2021/12/27 01:18:04;;;;;;;;;;;3.60;99.90;;;;;;5064944;28;19924;-71
2021/12/27 01:20:30;;;;;;;;;;;3.50;99.90;;;;;;5064975;28;19909;-70
2021/12/27 01:22:56;;;;;;;;;;;3.60;99.90;;;;;;5064138;28;20152;-70
2021/12/27 01:25:22;;;;;;;;;;;3.60;99.90;;;;;;5067428;28;19995;-70
2021/12/27 01:27:47;;;;;;;;;;;3.60;99.90;;;;;;5067935;28;19909;-72
2021/12/27 01:30:20;;;;;;;;;;;3.60;99.90;;;;;;5075504;28;20441;-69
2021/12/27 01:33:00;;;;;;;;;;;3.70;99.90;;;;;;5079396;28;20128;-71
2021/12/27 01:35:26;;;;;;;;;;;3.60;99.90;;;;;;5077875;28;19947;-70
2021/12/27 01:37:52;;;;;;;;;;;3.70;99.90;;;;;;5074508;28;19908;-70
2021/12/27 01:40:19;;;;;;;;;;;3.70;99.90;;;;;;5067247;28;19909;-70
2021/12/27 01:43:08;;;;;;;;;;;3.70;99.90;;;;;;5066525;28;19940;-70
2021/12/27 01:45:35;;;;;;;;;;;3.70;99.90;;;;;;5059409;28;19916;-70
2021/12/27 01:48:00;;;;;;;;;;;3.70;99.90;;;;;;5079129;28;20396;-70
2021/12/27 01:50:26;;;;;;;;;;;3.70;99.90;;;;;;5066755;28;19912;-70
2021/12/27 01:52:51;;;;;;;;;;;3.70;99.90;;;;;;5064027;28;19909;-69
2021/12/27 01:55:18;;;;;;;;;;;3.80;99.90;;;;;;5065219;28;19908;-69
2021/12/27 01:57:43;;;;;;;;;;;3.80;99.90;;;;;;5065278;28;19954;-69
2021/12/27 02:00:09;;;;;;;;;;;3.80;99.90;;;;;;5063422;28;19920;-68
2021/12/27 02:02:34;;;;;;;;;;;3.90;99.90;;;;;;5066291;28;19940;-69
2021/12/27 02:05:00;;;;;;;;;;;3.90;99.90;;;;;;5072865;28;19944;-69
2021/12/27 02:07:25;;;;;;;;;;;3.90;99.90;;;;;;5064002;28;19965;-69
2021/12/27 02:10:01;;;;;;;;;;;3.80;99.90;;;;;;5065716;28;20022;-68
2021/12/27 02:12:27;;;;;;;;;;;3.90;99.90;;;;;;5066875;28;19908;-70
2021/12/27 02:14:53;;;;;;;;;;;3.90;99.90;;;;;;5068557;28;20377;-69
2021/12/27 02:17:19;;;;;;;;;;;4.00;99.90;;;;;;5071215;28;19946;-70
2021/12/27 02:19:48;;;;;;;;;;;4.00;99.90;;;;;;5067713;28;19991;-71
2021/12/27 02:22:14;;;;;;;;;;;4.10;99.90;;;;;;5075039;28;20231;-69
2021/12/27 02:24:40;;;;;;;;;;;4.10;99.90;;;;;;5083838;28;20286;-70
2021/12/27 02:27:08;;;;;;;;;;;4.20;99.90;;;;;;5087252;28;20124;-69
2021/12/27 02:29:34;;;;;;;;;;;4.20;99.90;;;;;;5066935;28;20394;-70
2021/12/27 02:31:59;;;;;;;;;;;4.20;99.90;;;;;;5065616;28;19909;-69
2021/12/27 02:34:25;;;;;;;;;;;4.30;99.90;;;;;;5066438;28;20042;-70
2021/12/27 02:36:50;;;;;;;;;;;4.30;99.90;;;;;;5066551;28;19916;-70
2021/12/27 02:39:16;;;;;;;;;;;4.30;99.90;;;;;;5068438;28;19955;-70
2021/12/27 02:41:42;;;;;;;;;;;4.20;99.90;;;;;;5060939;28;19924;-69
2021/12/27 02:44:09;;;;;;;;;;;4.20;99.90;;;;;;5067415;28;19908;-70
2021/12/27 02:46:34;;;;;;;;;;;4.30;99.90;;;;;;5067091;28;20340;-73
2021/12/27 02:49:00;;;;;;;;;;;4.20;99.90;;;;;;5067009;28;19908;-69
2021/12/27 02:51:26;;;;;;;;;;;4.30;99.90;;;;;;5065503;28;20413;-68
2021/12/27 02:53:51;;;;;;;;;;;4.40;99.90;;;;;;5066908;28;19962;-69
2021/12/27 02:56:19;;;;;;;;;;;4.40;99.90;;;;;;5066641;28;20337;-70
2021/12/27 02:58:45;;;;;;;;;;;4.40;99.90;;;;;;5066644;28;20158;-73
2021/12/27 03:01:12;;;;;;;;;;;4.40;99.90;;;;;;5066187;28;20351;-69
2021/12/27 03:03:38;;;;;;;;;;;4.50;99.90;;;;;;5067770;28;20345;-70
2021/12/27 03:06:04;;;;;;;;;;;4.50;99.90;;;;;;5087490;28;20418;-70
2021/12/27 03:08:30;;;;;;;;;;;4.50;99.90;;;;;;5094596;28;19919;-71
2021/12/27 03:10:57;;;;;;;;;;;4.50;99.90;;;;;;5079163;28;19909;-70
2021/12/27 03:13:24;;;;;;;;;;;4.60;99.90;;;;;;5059106;28;19920;-70
2021/12/27 03:15:53;;;;;;;;;;;4.60;99.90;;;;;;5066820;28;19916;-70
2021/12/27 03:18:19;;;;;;;;;;;4.60;99.90;;;;;;5066360;28;20369;-70
2021/12/27 03:20:45;;;;;;;;;;;4.60;99.90;;;;;;5065487;28;20019;-71
2021/12/27 03:23:10;;;;;;;;;;;4.70;99.90;;;;;;5066529;28;19923;-69
2021/12/27 03:25:36;;;;;;;;;;;4.90;99.90;;;;;;5067081;28;19909;-71
2021/12/27 03:28:02;;;;;;;;;;;4.80;99.90;;;;;;5071222;28;20427;-69
2021/12/27 03:30:27;;;;;;;;;;;4.80;99.90;;;;;;5071432;28;19927;-68
2021/12/27 03:32:53;;;;;;;;;;;4.70;99.90;;;;;;5071744;28;19915;-71
2021/12/27 03:35:26;;;;;;;;;;;4.60;99.90;;;;;;5066890;28;19927;-70
2021/12/27 03:37:53;;;;;;;;;;;4.70;99.90;;;;;;5068503;28;19908;-70
2021/12/27 03:40:20;;;;;;;;;;;4.60;99.90;;;;;;5068932;28;19913;-70
2021/12/27 03:42:50;;;;;;;;;;;4.70;99.90;;;;;;5066808;28;19936;-71
2021/12/27 03:45:17;;;;;;;;;;;4.70;99.90;;;;;;5066432;28;19939;-70
2021/12/27 03:47:42;;;;;;;;;;;4.70;99.90;;;;;;5068317;28;19920;-69
2021/12/27 03:50:08;;;;;;;;;;;4.60;99.90;;;;;;5066931;28;19928;-72
2021/12/27 03:52:34;;;;;;;;;;;4.60;99.90;;;;;;5067720;28;19913;-70
2021/12/27 03:54:59;;;;;;;;;;;4.60;99.90;;;;;;5065976;28;19937;-70
2021/12/27 03:57:25;;;;;;;;;;;4.70;99.90;;;;;;5064423;28;19953;-70
2021/12/27 04:00:14;;;;;;;;;;;4.70;99.90;;;;;;5066494;28;20017;-70
2021/12/27 04:02:37;;;;;;;;;;;4.70;99.90;;;;;;5065527;28;20400;-69
2021/12/27 04:05:03;;;;;;;;;;;4.80;99.90;;;;;;5067623;28;19940;-69
2021/12/27 04:07:33;;;;;;;;;;;4.80;99.90;;;;;;5069966;28;19912;-69
2021/12/27 04:09:59;;;;;;;;;;;4.90;99.90;;;;;;5073734;28;19908;-69
2021/12/27 04:12:24;;;;;;;;;;;4.90;99.90;;;;;;5074867;28;20175;-69
2021/12/27 04:14:50;;;;;;;;;;;4.80;99.90;;;;;;5072561;28;19924;-70
2021/12/27 04:17:15;;;;;;;;;;;4.90;99.90;;;;;;5070121;28;19939;-70
2021/12/27 04:19:40;;;;;;;;;;;4.90;99.90;;;;;;5066165;28;20160;-71
2021/12/27 04:22:06;;;;;;;;;;;5.00;99.90;;;;;;5072957;28;19920;-71
2021/12/27 04:24:31;;;;;;;;;;;5.00;99.90;;;;;;5066235;28;19912;-72
2021/12/27 04:26:57;;;;;;;;;;;5.10;99.90;;;;;;5064389;28;19912;-69
2021/12/27 04:29:22;;;;;;;;;;;5.10;99.90;;;;;;5064960;28;20336;-70
2021/12/27 04:31:48;;;;;;;;;;;5.00;99.90;;;;;;5065501;28;19908;-69
2021/12/27 04:34:13;;;;;;;;;;;5.00;99.90;;;;;;5066430;28;20042;-70
2021/12/27 04:36:39;;;;;;;;;;;5.00;99.90;;;;;;5069981;28;19936;-69
2021/12/27 04:39:04;;;;;;;;;;;5.00;99.90;;;;;;5068074;28;19913;-70
2021/12/27 04:41:30;;;;;;;;;;;5.00;99.90;;;;;;5066113;28;19927;-70
2021/12/27 04:43:56;;;;;;;;;;;4.90;99.90;;;;;;5068820;28;19920;-71
2021/12/27 04:46:21;;;;;;;;;;;4.90;99.90;;;;;;5069525;28;20018;-71
2021/12/27 04:48:51;;;;;;;;;;;4.90;99.90;;;;;;5065393;28;19909;-71
2021/12/27 04:51:16;;;;;;;;;;;5.00;99.90;;;;;;5064949;28;19908;-69
2021/12/27 04:53:42;;;;;;;;;;;5.10;99.90;;;;;;5060574;28;20018;-69
2021/12/27 04:56:07;;;;;;;;;;;5.20;99.90;;;;;;5052489;28;20043;-69
2021/12/27 04:58:33;;;;;;;;;;;5.20;99.90;;;;;;5064499;28;20444;-69
2021/12/27 05:00:58;;;;;;;;;;;5.30;99.90;;;;;;5050883;28;19915;-68
2021/12/27 05:03:24;;;;;;;;;;;5.20;99.90;;;;;;5055106;28;19916;-73
2021/12/27 05:05:49;;;;;;;;;;;5.10;99.90;;;;;;5053455;28;19909;-70
2021/12/27 05:08:15;;;;;;;;;;;5.10;99.90;;;;;;5054899;28;20171;-69
2021/12/27 05:10:40;;;;;;;;;;;5.20;99.90;;;;;;5051432;28;19924;-69
2021/12/27 05:13:06;;;;;;;;;;;5.10;99.90;;;;;;5058486;28;19924;-69
2021/12/27 05:15:31;;;;;;;;;;;5.10;99.90;;;;;;5052495;28;19912;-68
2021/12/27 05:17:57;;;;;;;;;;;5.20;99.90;;;;;;5051529;28;19991;-74
2021/12/27 05:20:22;;;;;;;;;;;5.20;99.90;;;;;;5055996;28;20003;-71
2021/12/27 05:22:48;;;;;;;;;;;5.20;99.90;;;;;;5064578;28;20229;-68
2021/12/27 05:25:16;;;;;;;;;;;5.30;99.90;;;;;;5061723;28;19912;-69
2021/12/27 05:27:42;;;;;;;;;;;5.30;99.90;;;;;;5063656;28;19982;-69
2021/12/27 05:30:08;;;;;;;;;;;5.20;99.90;;;;;;5063748;28;19917;-69
2021/12/27 05:32:35;;;;;;;;;;;5.30;99.90;;;;;;5066410;28;20261;-70
2021/12/27 05:35:01;;;;;;;;;;;5.30;99.90;;;;;;5066805;28;19909;-69
2021/12/27 05:37:27;;;;;;;;;;;5.30;99.90;;;;;;5065959;28;20228;-70
2021/12/27 05:39:52;;;;;;;;;;;5.30;99.90;;;;;;5070623;28;19909;-70
2021/12/27 05:42:18;;;;;;;;;;;5.30;99.90;;;;;;5074749;28;19916;-70
2021/12/27 05:44:43;;;;;;;;;;;5.30;99.90;;;;;;5076704;28;19915;-70
2021/12/27 05:47:09;;;;;;;;;;;5.40;99.90;;;;;;5052803;28;20231;-70
2021/12/27 05:49:34;;;;;;;;;;;5.40;99.90;;;;;;5055624;28;20285;-69
2021/12/27 05:52:00;;;;;;;;;;;5.40;99.90;;;;;;5058988;28;20290;-71
2021/12/27 05:54:25;;;;;;;;;;;5.40;99.90;;;;;;5064419;28;20012;-69
2021/12/27 05:56:51;;;;;;;;;;;5.30;99.90;;;;;;5069828;28;19908;-68
2021/12/27 05:59:16;;;;;;;;;;;5.40;99.90;;;;;;5063993;28;19913;-69
2021/12/27 06:01:43;;;;;;;;;;;5.60;99.90;;;;;;5056113;28;19921;-70
2021/12/27 06:04:08;;;;;;;;;;;5.60;99.90;;;;;;5069990;28;19912;-67
2021/12/27 06:06:34;;;;;;;;;;;5.60;99.90;;;;;;5071494;28;19909;-68
2021/12/27 06:09:00;;;;;;;;;;;5.70;99.90;;;;;;5064727;28;19912;-70
2021/12/27 06:11:25;;;;;;;;;;;5.80;99.90;;;;;;5060933;28;20414;-71
2021/12/27 06:13:52;;;;;;;;;;;5.80;99.90;;;;;;5078019;28;20401;-70
2021/12/27 06:16:20;;;;;;;;;;;6.00;99.90;;;;;;5079112;28;19924;-71
2021/12/27 06:18:46;;;;;;;;;;;6.10;99.90;;;;;;5073609;28;19909;-69
2021/12/27 06:21:12;;;;;;;;;;;6.10;99.90;;;;;;5066246;28;19912;-70
2021/12/27 06:23:37;;;;;;;;;;;6.20;99.90;;;;;;5066173;28;19939;-69
2021/12/27 06:26:03;;;;;;;;;;;6.20;99.90;;;;;;5081320;28;20054;-68
2021/12/27 06:28:31;;;;;;;;;;;6.20;99.90;;;;;;5072522;28;19908;-71
2021/12/27 06:30:57;;;;;;;;;;;6.30;99.90;;;;;;5074312;28;19920;-69
2021/12/27 06:33:23;;;;;;;;;;;6.40;99.90;;;;;;5073398;28;19943;-70
2021/12/27 06:35:49;;;;;;;;;;;6.40;99.90;;;;;;5079576;28;19909;-68
2021/12/27 06:38:14;;;;;;;;;;;6.30;99.90;;;;;;5068605;28;19916;-68
2021/12/27 06:40:40;;;;;;;;;;;6.30;99.90;;;;;;5079503;28;19919;-72
2021/12/27 06:43:05;;;;;;;;;;;6.40;99.90;;;;;;5065736;28;19959;-69
2021/12/27 06:45:31;;;;;;;;;;;6.40;99.90;;;;;;5078420;28;20331;-72
2021/12/27 06:47:56;;;;;;;;;;;6.50;99.90;;;;;;5067802;28;20419;-70
2021/12/27 06:50:23;;;;;;;;;;;6.50;99.90;;;;;;5067678;28;19924;-70
2021/12/27 06:52:49;;;;;;;;;;;6.50;99.90;;;;;;5073338;28;19916;-69
2021/12/27 06:55:14;;;;;;;;;;;6.50;99.90;;;;;;5069704;28;19920;-69
2021/12/27 06:57:40;;;;;;;;;;;6.50;99.90;;;;;;5068075;28;20422;-71
2021/12/27 07:00:07;;;;;;;;;;;6.50;99.90;;;;;;5057664;28;19909;-69
2021/12/27 07:02:33;;;;;;;;;;;6.60;99.90;;;;;;5058804;28;19917;-69
2021/12/27 07:04:58;;;;;;;;;;;6.70;99.90;;;;;;5053594;28;20531;-70
2021/12/27 07:07:24;;;;;;;;;;;6.60;99.90;;;;;;5071328;28;19908;-70
2021/12/27 07:09:49;;;;;;;;;;;6.60;99.90;;;;;;5067829;28;19909;-68
2021/12/27 07:12:15;;;;;;;;;;;6.60;99.90;;;;;;5065393;28;19912;-70
2021/12/27 07:14:41;;;;;;;;;;;6.60;99.90;;;;;;5059723;28;19951;-70
2021/12/27 07:17:07;;;;;;;;;;;6.60;99.90;;;;;;5060837;28;19909;-70
2021/12/27 07:19:32;;;;;;;;;;;6.70;99.90;;;;;;5067148;28;19970;-69
2021/12/27 07:21:58;;;;;;;;;;;6.70;99.90;;;;;;5069417;28;19919;-73
2021/12/27 07:24:23;;;;;;;;;;;6.70;99.90;;;;;;5071634;28;19958;-72
2021/12/27 07:26:49;;;;;;;;;;;6.80;99.90;;;;;;5066152;28;20388;-71
2021/12/27 07:29:15;;;;;;;;;;;6.80;99.90;;;;;;5073327;28;19982;-69
2021/12/27 07:31:40;;;;;;;;;;;6.80;99.90;;;;;;5077687;28;19912;-69
2021/12/27 07:34:06;;;;;;;;;;;6.80;99.90;;;;;;5086191;28;20016;-70
2021/12/27 07:36:31;;;;;;;;;;;6.80;99.90;;;;;;5074393;28;19908;-71
2021/12/27 07:38:57;;;;;;;;;;;6.80;99.90;;;;;;5069932;28;20328;-71
2021/12/27 07:41:23;;;;;;;;;;;6.80;99.90;;;;;;5072382;28;19915;-69
2021/12/27 07:43:49;;;;;;;;;;;6.80;99.90;;;;;;5074653;28;20012;-69
2021/12/27 07:46:15;;;;;;;;;;;6.80;99.90;;;;;;5078847;28;19948;-70
2021/12/27 07:48:40;;;;;;;;;;;6.80;99.90;;;;;;5078183;28;19908;-71
2021/12/27 07:51:06;;;;;;;;;;;6.90;99.90;;;;;;5074234;28;19908;-74
2021/12/27 07:53:31;;;;;;;;;;;7.00;99.90;;;;;;5072839;28;19942;-69
2021/12/27 07:55:57;;;;;;;;;;;6.90;99.90;;;;;;5073676;28;19959;-70
2021/12/27 07:58:22;;;;;;;;;;;6.90;99.90;;;;;;5067059;28;20270;-69
2021/12/27 08:00:50;;;;;;;;;;;6.90;99.90;;;;;;5056206;28;19973;-73
2021/12/27 08:03:17;;;;;;;;;;;7.00;99.90;;;;;;5056665;28;19923;-73
2021/12/27 08:05:43;;;;;;;;;;;7.00;99.90;;;;;;5057324;28;20144;-71
2021/12/27 08:08:08;;;;;;;;;;;7.10;99.90;;;;;;5061814;28;19983;-72
2021/12/27 08:10:33;;;;;;;;;;;6.90;99.90;;;;;;5062937;28;20401;-71
2021/12/27 08:13:01;;;;;;;;;;;6.90;99.90;;;;;;5059620;28;19916;-71
2021/12/27 08:15:26;;;;;;;;;;;7.00;99.90;;;;;;5064165;28;20203;-69
2021/12/27 08:17:52;;;;;;;;;;;6.90;99.90;;;;;;5064805;28;20232;-70
2021/12/27 08:20:17;;;;;;;;;;;6.90;99.90;;;;;;5064883;28;20007;-70
2021/12/27 08:22:43;;;;;;;;;;;6.80;99.90;;;;;;5067364;28;19920;-70
2021/12/27 08:25:09;;;;;;;;;;;6.90;99.90;;;;;;5062774;28;20285;-71
2021/12/27 08:27:35;;;;;;;;;;;6.90;99.90;;;;;;5056003;28;20408;-70
2021/12/27 08:30:04;;;;;;;;;;;6.90;99.90;;;;;;5061740;28;19904;-72
2021/12/27 08:32:31;;;;;;;;;;;7.00;99.90;;;;;;5063565;28;19951;-74
2021/12/27 08:34:56;;;;;;;;;;;7.00;99.90;;;;;;5063307;28;19915;-69
2021/12/27 08:37:22;;;;;;;;;;;6.90;99.90;;;;;;5062374;28;20110;-70
2021/12/27 08:39:47;;;;;;;;;;;6.80;99.90;;;;;;5070268;28;19962;-69
2021/12/27 08:42:13;;;;;;;;;;;6.80;99.90;;;;;;5072606;28;19916;-70
2021/12/27 08:44:38;;;;;;;;;;;6.80;99.90;;;;;;5069477;28;19909;-70
2021/12/27 08:47:04;;;;;;;;;;;6.90;99.90;;;;;;5067841;28;20273;-70
2021/12/27 08:49:30;;;;;;;;;;;6.90;99.90;;;;;;5063101;28;19923;-70
2021/12/27 08:51:56;;;;;;;;;;;7.00;99.90;;;;;;5053060;28;19908;-70
2021/12/27 08:54:21;;;;;;;;;;;7.00;99.90;;;;;;5050398;28;19913;-71
2021/12/27 08:56:47;;;;;;;;;;;7.00;99.90;;;;;;5058835;28;19908;-70
2021/12/27 08:59:13;;;;;;;;;;;7.10;99.90;;;;;;5055664;28;20409;-70
2021/12/27 09:01:38;;;;;;;;;;;7.00;99.90;;;;;;5055252;28;19927;-70
2021/12/27 09:04:04;;;;;;;;;;;7.00;99.90;;;;;;5058039;28;20192;-70
2021/12/27 09:06:33;;;;;;;;;;;7.00;99.90;;;;;;5058972;28;20278;-70
2021/12/27 09:08:59;;;;;;;;;;;7.00;99.90;;;;;;5055610;28;19923;-69
2021/12/27 09:11:24;;;;;;;;;;;7.00;99.90;;;;;;5050140;28;20293;-71
2021/12/27 09:13:50;;;;;;;;;;;7.00;99.90;;;;;;5061504;28;20021;-70
2021/12/27 09:16:15;;;;;;;;;;;7.10;99.90;;;;;;5056898;28;20389;-70
2021/12/27 09:18:41;;;;;;;;;;;7.10;99.90;;;;;;5057280;28;19917;-69
2021/12/27 09:21:07;;;;;;;;;;;7.30;99.90;;;;;;5063011;28;19919;-69
2021/12/27 09:23:32;;;;;;;;;;;7.30;99.90;;;;;;5062673;28;20340;-70
2021/12/27 09:25:58;;;;;;;;;;;7.20;99.90;;;;;;5062387;28;19935;-70
2021/12/27 09:28:23;;;;;;;;;;;7.20;99.90;;;;;;5066340;28;19913;-70
2021/12/27 09:30:49;;;;;;;;;;;7.10;99.90;;;;;;5066750;28;20364;-69
2021/12/27 09:33:14;;;;;;;;;;;7.10;99.90;;;;;;5059879;28;19924;-70
2021/12/27 09:35:40;;;;;;;;;;;7.20;99.90;;;;;;5064079;28;19967;-68
2021/12/27 09:38:06;;;;;;;;;;;7.10;99.90;;;;;;5071051;28;20328;-68
2021/12/27 09:40:32;;;;;;;;;;;7.10;99.90;;;;;;5076227;28;20328;-68
2021/12/27 09:42:58;;;;;;;;;;;7.10;99.90;;;;;;5077540;28;19990;-67
2021/12/27 09:45:24;;;;;;;;;;;7.10;99.90;;;;;;5064221;28;19931;-70
2021/12/27 09:47:50;;;;;;;;;;;7.10;99.90;;;;;;5072047;28;20285;-70
2021/12/27 09:50:30;;;;;;;;;;;7.20;99.90;;;;;;5072929;28;19975;-69
2021/12/27 09:52:56;;;;;;;;;;;7.20;99.90;;;;;;5074009;28;19972;-69
2021/12/27 09:55:22;;;;;;;;;;;7.20;99.90;;;;;;5077027;28;19909;-68
2021/12/27 09:57:47;;;;;;;;;;;7.20;99.90;;;;;;5081215;28;19909;-68
2021/12/27 10:00:13;;;;;;;;;;;7.20;99.90;;;;;;5077512;28;20322;-68
2021/12/27 10:02:40;;;;;;;;;;;7.20;99.90;;;;;;5077960;28;19940;-70
2021/12/27 10:05:06;;;;;;;;;;;7.20;99.90;;;;;;5075529;28;19924;-69
2021/12/27 10:07:31;;;;;;;;;;;7.20;99.90;;;;;;5073672;28;19908;-70
2021/12/27 10:09:59;;;;;;;;;;;7.30;99.90;;;;;;5067068;28;19909;-70
2021/12/27 10:12:27;;;;;;;;;;;7.30;99.90;;;;;;5064837;28;20008;-70
2021/12/27 10:14:54;;;;;;;;;;;7.30;99.90;;;;;;5049173;28;19921;-70
2021/12/27 10:17:20;;;;;;;;;;;7.30;99.90;;;;;;5066015;28;19912;-70
2021/12/27 10:19:45;;;;;;;;;;;7.30;99.90;;;;;;5067353;28;20362;-70
2021/12/27 10:22:11;;;;;;;;;;;7.30;99.90;;;;;;5068836;28;19912;-69
2021/12/27 10:24:37;;;;;;;;;;;7.30;99.90;;;;;;5068990;28;19909;-69
2021/12/27 10:27:03;;;;;;;;;;;7.30;99.90;;;;;;5068428;28;20275;-70
2021/12/27 10:29:31;;;;;;;;;;;7.40;99.90;;;;;;5074759;28;19920;-69
2021/12/27 10:31:57;;;;;;;;;;;7.40;99.90;;;;;;5062172;28;19912;-67
2021/12/27 10:34:23;;;;;;;;;;;7.40;99.90;;;;;;5082907;28;19970;-70
2021/12/27 10:37:01;;;;;;;;;;;7.50;99.90;;;;;;5102820;28;19897;-65
2021/12/27 10:39:46;;;;;;;;;;;7.50;99.90;;;;;;5095583;28;19912;-68
2021/12/27 10:42:18;;;;;;;;;;;7.40;99.90;;;;;;5092255;28;19925;-68
2021/12/27 10:44:44;;;;;;;;;;;7.40;99.90;;;;;;5081880;28;19936;-70
2021/12/27 10:47:25;;;;;;;;;;;7.50;99.90;;;;;;5090005;28;19920;-69
2021/12/27 10:49:51;;;;;;;;;;;7.40;99.90;;;;;;5073660;28;19913;-70
2021/12/27 10:52:17;;;;;;;;;;;7.40;99.90;;;;;;5059645;28;19919;-69
2021/12/27 10:54:42;;;;;;;;;;;7.50;99.90;;;;;;5052573;28;20433;-69
2021/12/27 10:57:08;;;;;;;;;;;7.50;99.90;;;;;;5074599;28;19919;-70
2021/12/27 10:59:34;;;;;;;;;;;7.50;99.90;;;;;;5076004;28;19908;-70
2021/12/27 11:02:13;;;;;;;;;;;7.60;99.90;;;;;;5077406;28;19920;-69
2021/12/27 11:04:39;;;;;;;;;;;7.60;99.90;;;;;;5072933;28;20581;-69
2021/12/27 11:07:05;;;;;;;;;;;7.60;99.90;;;;;;5071015;28;19995;-70
2021/12/27 11:09:31;;;;;;;;;;;7.60;99.90;;;;;;5072646;28;19913;-71
2021/12/27 11:11:57;;;;;;;;;;;7.60;99.90;;;;;;5077365;28;20312;-70
2021/12/27 11:14:22;;;;;;;;;;;7.70;99.90;;;;;;5083477;28;19920;-69
2021/12/27 11:16:48;;;;;;;;;;;7.60;99.90;;;;;;5082534;28;19913;-69
2021/12/27 11:19:14;;;;;;;;;;;7.60;99.90;;;;;;5084410;28;19913;-68
2021/12/27 11:21:45;;;;;;;;;;;7.50;99.90;;;;;;5087306;28;19897;-66
2021/12/27 11:24:11;;;;;;;;;;;7.50;99.90;;;;;;5074785;28;19909;-70
2021/12/27 11:26:38;;;;;;;;;;;7.50;99.90;;;;;;5071037;28;19916;-70
2021/12/27 11:29:11;;;;;;;;;;;7.50;99.90;;;;;;5069271;28;19920;-70
2021/12/27 11:31:38;;;;;;;;;;;7.50;99.90;;;;;;5067765;28;20413;-69
2021/12/27 11:34:07;;;;;;;;;;;7.50;99.90;;;;;;5052332;28;20233;-71
2021/12/27 11:36:33;;;;;;;;;;;7.50;99.90;;;;;;5049735;28;19916;-70
2021/12/27 11:39:00;;;;;;;;;;;7.50;99.90;;;;;;5047637;28;19909;-71
2021/12/27 11:41:35;;;;;;;;;;;7.60;99.90;;;;;;5056463;28;19965;-69
2021/12/27 11:44:04;;;;;;;;;;;7.60;99.90;;;;;;5063825;28;20354;-70
2021/12/27 11:46:31;;;;;;;;;;;7.60;99.90;;;;;;5053501;28;19909;-70
2021/12/27 11:48:58;;;;;;;;;;;7.60;99.90;;;;;;5059662;28;19944;-68
2021/12/27 11:51:31;;;;;;;;;;;7.50;99.90;;;;;;5066526;28;19923;-71
2021/12/27 11:53:59;;;;;;;;;;;7.50;99.90;;;;;;5057911;28;19939;-68
2021/12/27 11:56:38;;;;;;;;;;;7.50;99.90;;;;;;5073049;28;20000;-70
2021/12/27 11:59:21;;;;;;;;;;;7.40;99.90;;;;;;5055939;28;20370;-71
2021/12/27 12:01:48;;;;;;;;;;;7.30;99.90;;;;;;5057602;28;19962;-71
2021/12/27 12:04:33;;;;;;;;;;;7.30;99.90;;;;;;5066465;28;19908;-72
2021/12/27 12:06:58;;;;;;;;;;;7.20;99.90;;;;;;5066676;28;19908;-72
2021/12/27 12:09:24;;;;;;;;;;;7.20;99.90;;;;;;5060543;28;19913;-70
2021/12/27 12:12:05;;;;;;;;;;;7.20;99.90;;;;;;5065577;28;19908;-69
2021/12/27 12:14:34;;;;;;;;;;;7.30;99.90;;;;;;5066426;28;19927;-70
2021/12/27 12:17:01;;;;;;;;;;;7.20;99.90;;;;;;5065431;28;20253;-71
2021/12/27 12:19:46;;;;;;;;;;;7.30;99.90;;;;;;5067019;28;20238;-68
2021/12/27 12:22:31;;;;;;;;;;;7.40;99.90;;;;;;5065826;28;20001;-70
2021/12/27 12:25:16;;;;;;;;;;;7.40;99.90;;;;;;5065873;28;20147;-68
2021/12/27 12:28:00;;;;;;;;;;;7.40;99.90;;;;;;5065353;28;19973;-69
2021/12/27 12:30:33;;;;;;;;;;;7.40;99.90;;;;;;5065403;28;20083;-72
2021/12/27 12:33:09;;;;;;;;;;;7.40;99.90;;;;;;5066368;28;19909;-71
2021/12/27 12:35:34;;;;;;;;;;;7.40;99.90;;;;;;5067424;28;19919;-72
2021/12/27 12:38:12;;;;;;;;;;;7.40;99.90;;;;;;5066202;28;20011;-69
2021/12/27 12:40:38;;;;;;;;;;;7.40;99.90;;;;;;5066095;28;20335;-71
2021/12/27 12:43:03;;;;;;;;;;;7.40;99.90;;;;;;5065319;28;19920;-70
2021/12/27 12:45:29;;;;;;;;;;;7.40;99.90;;;;;;5067122;28;20108;-69
2021/12/27 12:47:58;;;;;;;;;;;7.40;99.90;;;;;;5086250;28;20250;-69
2021/12/27 12:50:25;;;;;;;;;;;7.40;99.90;;;;;;5085482;28;19917;-68
2021/12/27 12:52:55;;;;;;;;;;;7.40;99.90;;;;;;5083167;28;19909;-68
2021/12/27 12:55:22;;;;;;;;;;;7.50;99.90;;;;;;5070537;28;20011;-75
2021/12/27 12:58:09;;;;;;;;;;;7.50;99.90;;;;;;5082271;28;20074;-68
2021/12/27 13:00:36;;;;;;;;;;;7.40;99.90;;;;;;5052375;28;19930;-71
2021/12/27 13:03:12;;;;;;;;;;;7.50;99.90;;;;;;5065757;28;19962;-69
2021/12/27 13:05:45;;;;;;;;;;;7.40;99.90;;;;;;5082504;28;19896;-67
2021/12/27 13:08:12;;;;;;;;;;;7.50;99.90;;;;;;5088643;28;19904;-67
2021/12/27 13:11:34;;;;;;;;;;;7.50;99.90;;;;;;5086605;28;19916;-67
2021/12/27 13:14:00;;;;;;;;;;;7.50;99.90;;;;;;5063107;28;20007;-68
2021/12/27 13:16:29;;;;;;;;;;;7.60;99.90;;;;;;5058586;28;20419;-69
2021/12/27 13:18:57;;;;;;;;;;;7.60;99.90;;;;;;5077380;28;19967;-66
2021/12/27 13:21:45;;;;;;;;;;;7.60;99.90;;;;;;5073488;28;19960;-67
2021/12/27 13:24:15;;;;;;;;;;;7.60;99.90;;;;;;5086298;28;19908;-68
2021/12/27 13:26:41;;;;;;;;;;;7.70;99.90;;;;;;5065920;28;19909;-70
2021/12/27 13:29:06;;;;;;;;;;;7.70;99.90;;;;;;5059412;28;19920;-70
2021/12/27 13:31:55;;;;;;;;;;;7.70;99.90;;;;;;5075406;28;19924;-67
2021/12/27 13:34:22;;;;;;;;;;;7.70;99.90;;;;;;5082793;28;19896;-66
2021/12/27 13:37:08;;;;;;;;;;;7.70;99.90;;;;;;5059690;28;19999;-68
2021/12/27 13:39:33;;;;;;;;;;;7.70;99.90;;;;;;5057167;28;20008;-70
2021/12/27 13:42:06;;;;;;;;;;;7.70;99.90;;;;;;5056152;28;20217;-69
2021/12/27 13:44:36;;;;;;;;;;;7.80;99.90;;;;;;5054302;28;20156;-69
2021/12/27 13:47:03;;;;;;;;;;;7.90;99.90;;;;;;5069062;28;19919;-69
2021/12/27 13:49:28;;;;;;;;;;;7.90;99.90;;;;;;5075652;28;20015;-69
2021/12/27 13:51:58;;;;;;;;;;;7.90;99.90;;;;;;5070855;28;19919;-69
2021/12/27 13:54:24;;;;;;;;;;;7.90;99.90;;;;;;5077088;28;19908;-69
2021/12/27 13:56:51;;;;;;;;;;;8.00;99.90;;;;;;5072393;28;19908;-71
2021/12/27 13:59:18;;;;;;;;;;;8.00;99.90;;;;;;5067961;28;19909;-74
2021/12/27 14:02:14;;;;;;;;;;;8.00;99.90;;;;;;5074704;28;19930;-69
2021/12/27 14:04:45;;;;;;;;;;;8.00;99.90;;;;;;5085268;28;19977;-67
2021/12/27 14:07:10;;;;;;;;;;;7.90;99.90;;;;;;5076312;28;19945;-69
2021/12/27 14:09:37;;;;;;;;;;;8.00;99.90;;;;;;5064510;28;19966;-70
2021/12/27 14:12:04;;;;;;;;;;;8.00;99.90;;;;;;5075067;28;20118;-68
2021/12/27 14:14:34;;;;;;;;;;;8.00;99.90;;;;;;5092443;28;19912;-68
2021/12/27 14:17:04;;;;;;;;;;;8.00;99.90;;;;;;5084503;28;20732;-70
2021/12/27 14:19:37;;;;;;;;;;;8.00;99.90;;;;;;5071992;28;20130;-67
2021/12/27 14:22:07;;;;;;;;;;;8.10;99.90;;;;;;5091675;28;19905;-70
2021/12/27 14:24:54;;;;;;;;;;;8.10;99.90;;;;;;5089587;28;19962;-68
2021/12/27 14:27:34;;;;;;;;;;;8.10;99.90;;;;;;5092443;28;19912;-68
2021/12/27 14:30:11;;;;;;;;;;;8.10;99.90;;;;;;5083626;28;20066;-71
2021/12/27 14:32:38;;;;;;;;;;;8.10;99.90;;;;;;5066216;28;19920;-70
2021/12/27 14:35:15;;;;;;;;;;;8.10;99.90;;;;;;5067508;28;20185;-69
2021/12/27 14:37:40;;;;;;;;;;;8.10;99.90;;;;;;5067640;28;19956;-73
2021/12/27 14:40:08;;;;;;;;;;;8.10;99.90;;;;;;5072252;28;19928;-67
2021/12/27 14:42:35;;;;;;;;;;;8.00;99.90;;;;;;5087037;28;19912;-70